sensor_id;sensor_type;location;lat;lon;timestamp;pressure;altitude;pressure_sealevel;temperature;humidity
70841;BME280;58465;51.534;9.934;2023-05-12T00:01:22;99948.44;;;14.46;81.29
70841;BME280;58465;51.534;9.934;2023-05-12T00:03:47;99947.84;;;14.38;80.68
70841;BME280;58465;51.534;9.934;2023-05-12T00:06:12;99942.56;;;14.35;80.35
70841;BME280;58465;51.534;9.934;2023-05-12T00:08:38;99937.34;;;14.32;80.72
70841;BME280;58465;51.534;9.934;2023-05-12T00:11:03;99936.38;;;14.33;80.62
70841;BME280;58465;51.534;9.934;2023-05-12T00:13:28;99939.88;;;14.35;80.65
70841;BME280;58465;51.534;9.934;2023-05-12T00:15:56;99939.00;;;14.34;80.33
70841;BME280;58465;51.534;9.934;2023-05-12T00:18:23;99940.47;;;14.43;80.41
70841;BME280;58465;51.534;9.934;2023-05-12T00:20:48;99941.00;;;14.53;80.05
70841;BME280;58465;51.534;9.934;2023-05-12T00:23:13;99940.13;;;14.52;80.12
70841;BME280;58465;51.534;9.934;2023-05-12T00:25:39;99944.69;;;14.27;80.68
70841;BME280;58465;51.534;9.934;2023-05-12T00:28:04;99941.88;;;14.30;80.90
70841;BME280;58465;51.534;9.934;2023-05-12T00:30:29;99952.50;;;14.33;80.93
70841;BME280;58465;51.534;9.934;2023-05-12T00:32:55;99949.66;;;14.37;80.89
70841;BME280;58465;51.534;9.934;2023-05-12T00:35:20;99948.69;;;14.40;80.60
70841;BME280;58465;51.534;9.934;2023-05-12T00:37:45;99954.13;;;14.37;80.92
70841;BME280;58465;51.534;9.934;2023-05-12T00:40:11;99949.06;;;14.29;81.12
70841;BME280;58465;51.534;9.934;2023-05-12T00:42:36;99948.13;;;14.30;81.15
70841;BME280;58465;51.534;9.934;2023-05-12T00:45:02;99950.31;;;14.21;81.47
70841;BME280;58465;51.534;9.934;2023-05-12T00:47:28;99950.16;;;14.24;80.98
70841;BME280;58465;51.534;9.934;2023-05-12T00:49:54;99952.84;;;14.24;80.92
70841;BME280;58465;51.534;9.934;2023-05-12T00:52:19;99949.44;;;14.20;80.95
70841;BME280;58465;51.534;9.934;2023-05-12T00:54:45;99949.38;;;14.22;81.41
70841;BME280;58465;51.534;9.934;2023-05-12T00:57:11;99953.06;;;14.19;81.53
70841;BME280;58465;51.534;9.934;2023-05-12T00:59:37;99945.97;;;14.17;81.52
70841;BME280;58465;51.534;9.934;2023-05-12T01:02:02;99949.50;;;14.19;81.34
70841;BME280;58465;51.534;9.934;2023-05-12T01:04:28;99952.28;;;14.16;81.60
70841;BME280;58465;51.534;9.934;2023-05-12T01:07:03;99941.78;;;14.09;82.07
70841;BME280;58465;51.534;9.934;2023-05-12T01:09:31;99951.94;;;14.01;82.39
70841;BME280;58465;51.534;9.934;2023-05-12T01:11:56;99952.88;;;14.00;82.38
70841;BME280;58465;51.534;9.934;2023-05-12T01:14:21;99956.59;;;13.96;82.47
70841;BME280;58465;51.534;9.934;2023-05-12T01:16:50;99951.13;;;13.99;82.39
70841;BME280;58465;51.534;9.934;2023-05-12T01:19:30;99953.63;;;14.04;82.20
70841;BME280;58465;51.534;9.934;2023-05-12T01:21:57;99961.63;;;14.05;81.88
70841;BME280;58465;51.534;9.934;2023-05-12T01:24:26;99958.19;;;14.02;82.24
70841;BME280;58465;51.534;9.934;2023-05-12T01:26:53;99960.88;;;14.02;82.39
70841;BME280;58465;51.534;9.934;2023-05-12T01:29:18;99962.09;;;13.93;82.49
70841;BME280;58465;51.534;9.934;2023-05-12T01:31:45;99961.97;;;13.96;82.31
70841;BME280;58465;51.534;9.934;2023-05-12T01:34:15;99962.03;;;13.95;82.46
70841;BME280;58465;51.534;9.934;2023-05-12T01:36:40;99956.22;;;13.84;82.85
70841;BME280;58465;51.534;9.934;2023-05-12T01:39:05;99963.09;;;13.91;82.89
70841;BME280;58465;51.534;9.934;2023-05-12T01:41:31;99970.38;;;13.87;82.71
70841;BME280;58465;51.534;9.934;2023-05-12T01:43:56;99969.44;;;13.88;82.94
70841;BME280;58465;51.534;9.934;2023-05-12T01:46:21;99971.97;;;13.93;82.56
70841;BME280;58465;51.534;9.934;2023-05-12T01:48:46;99969.44;;;13.88;82.55
70841;BME280;58465;51.534;9.934;2023-05-12T01:51:12;99975.06;;;13.82;83.00
70841;BME280;58465;51.534;9.934;2023-05-12T01:53:37;99971.44;;;13.83;82.63
70841;BME280;58465;51.534;9.934;2023-05-12T01:56:02;99973.50;;;13.75;82.99
70841;BME280;58465;51.534;9.934;2023-05-12T01:58:27;99981.31;;;13.83;82.43
70841;BME280;58465;51.534;9.934;2023-05-12T02:00:53;99984.13;;;13.78;82.66
70841;BME280;58465;51.534;9.934;2023-05-12T02:03:18;99976.81;;;13.83;82.82
70841;BME280;58465;51.534;9.934;2023-05-12T02:05:43;99973.06;;;13.87;82.97
70841;BME280;58465;51.534;9.934;2023-05-12T02:08:09;99977.78;;;13.81;82.81
70841;BME280;58465;51.534;9.934;2023-05-12T02:10:34;99982.63;;;13.71;83.32
70841;BME280;58465;51.534;9.934;2023-05-12T02:12:59;99973.50;;;13.75;83.04
70841;BME280;58465;51.534;9.934;2023-05-12T02:15:25;99965.09;;;13.61;83.41
70841;BME280;58465;51.534;9.934;2023-05-12T02:17:50;99974.06;;;13.60;83.42
70841;BME280;58465;51.534;9.934;2023-05-12T02:20:18;99966.78;;;13.63;83.27
70841;BME280;58465;51.534;9.934;2023-05-12T02:22:43;99974.63;;;13.69;83.33
70841;BME280;58465;51.534;9.934;2023-05-12T02:25:08;99972.53;;;13.78;82.96
70841;BME280;58465;51.534;9.934;2023-05-12T02:27:33;99976.13;;;13.77;83.13
70841;BME280;58465;51.534;9.934;2023-05-12T02:29:59;99977.78;;;13.81;82.81
70841;BME280;58465;51.534;9.934;2023-05-12T02:32:24;99968.66;;;13.85;82.52
70841;BME280;58465;51.534;9.934;2023-05-12T02:34:52;99965.00;;;13.87;82.91
70841;BME280;58465;51.534;9.934;2023-05-12T02:37:17;99968.56;;;13.88;82.42
70841;BME280;58465;51.534;9.934;2023-05-12T02:39:42;99956.94;;;13.87;82.79
70841;BME280;58465;51.534;9.934;2023-05-12T02:42:08;99959.69;;;13.86;82.60
70841;BME280;58465;51.534;9.934;2023-05-12T02:44:33;99961.56;;;13.84;82.78
70841;BME280;58465;51.534;9.934;2023-05-12T02:46:58;99961.34;;;13.90;82.46
70841;BME280;58465;51.534;9.934;2023-05-12T02:49:23;99960.34;;;13.92;82.57
70841;BME280;58465;51.534;9.934;2023-05-12T02:51:49;99967.34;;;13.96;82.39
70841;BME280;58465;51.534;9.934;2023-05-12T02:54:14;99969.44;;;13.88;82.45
70841;BME280;58465;51.534;9.934;2023-05-12T02:56:39;99977.44;;;13.90;82.35
70841;BME280;58465;51.534;9.934;2023-05-12T02:59:04;99978.06;;;13.73;82.73
70841;BME280;58465;51.534;9.934;2023-05-12T03:01:30;99977.00;;;13.77;82.64
70841;BME280;58465;51.534;9.934;2023-05-12T03:03:55;99974.03;;;13.85;82.55
70841;BME280;58465;51.534;9.934;2023-05-12T03:06:20;99983.78;;;13.87;82.43
70841;BME280;58465;51.534;9.934;2023-05-12T03:08:46;99975.97;;;13.81;82.67
70841;BME280;58465;51.534;9.934;2023-05-12T03:11:11;99975.59;;;13.67;82.99
70841;BME280;58465;51.534;9.934;2023-05-12T03:13:36;99976.19;;;13.75;82.98
70841;BME280;58465;51.534;9.934;2023-05-12T03:16:02;99968.38;;;13.69;83.03
70841;BME280;58465;51.534;9.934;2023-05-12T03:18:27;99968.25;;;13.72;82.84
70841;BME280;58465;51.534;9.934;2023-05-12T03:20:53;99975.44;;;13.71;82.89
70841;BME280;58465;51.534;9.934;2023-05-12T03:23:18;99971.63;;;13.77;82.65
70841;BME280;58465;51.534;9.934;2023-05-12T03:25:43;99974.66;;;13.68;82.68
70841;BME280;58465;51.534;9.934;2023-05-12T03:28:08;99982.38;;;13.77;82.72
70841;BME280;58465;51.534;9.934;2023-05-12T03:30:34;99980.53;;;13.79;82.54
70841;BME280;58465;51.534;9.934;2023-05-12T03:32:59;99982.09;;;13.85;82.35
70841;BME280;58465;51.534;9.934;2023-05-12T03:35:24;99980.97;;;13.67;82.92
70841;BME280;58465;51.534;9.934;2023-05-12T03:37:49;99967.19;;;13.53;83.42
70841;BME280;58465;51.534;9.934;2023-05-12T03:40:14;99971.44;;;13.58;83.16
70841;BME280;58465;51.534;9.934;2023-05-12T03:42:45;99975.19;;;13.54;83.04
70841;BME280;58465;51.534;9.934;2023-05-12T03:45:11;99975.28;;;13.51;83.18
70841;BME280;58465;51.534;9.934;2023-05-12T03:47:36;99984.31;;;13.49;83.08
70841;BME280;58465;51.534;9.934;2023-05-12T03:50:02;99974.31;;;13.54;83.04
70841;BME280;58465;51.534;9.934;2023-05-12T03:52:27;99974.22;;;13.55;83.10
70841;BME280;58465;51.534;9.934;2023-05-12T03:54:53;99976.16;;;13.52;82.91
70841;BME280;58465;51.534;9.934;2023-05-12T03:57:18;99974.94;;;13.60;82.39
70841;BME280;58465;51.534;9.934;2023-05-12T03:59:43;99974.75;;;13.65;82.38
70841;BME280;58465;51.534;9.934;2023-05-12T04:02:08;99983.97;;;13.58;82.35
70841;BME280;58465;51.534;9.934;2023-05-12T04:04:36;99980.53;;;13.54;82.38
70841;BME280;58465;51.534;9.934;2023-05-12T04:07:01;99979.19;;;13.66;82.10
70841;BME280;58465;51.534;9.934;2023-05-12T04:09:26;99982.66;;;13.69;81.93
70841;BME280;58465;51.534;9.934;2023-05-12T04:11:52;99988.69;;;13.76;81.86
70841;BME280;58465;51.534;9.934;2023-05-12T04:14:17;99979.09;;;13.69;81.66
70841;BME280;58465;51.534;9.934;2023-05-12T04:16:43;99983.09;;;13.57;81.98
70841;BME280;58465;51.534;9.934;2023-05-12T04:19:08;99978.19;;;13.70;81.47
70841;BME280;58465;51.534;9.934;2023-05-12T04:21:34;99990.03;;;13.64;81.95
70841;BME280;58465;51.534;9.934;2023-05-12T04:24:00;99990.03;;;13.64;82.04
70841;BME280;58465;51.534;9.934;2023-05-12T04:26:25;99992.47;;;13.70;81.62
70841;BME280;58465;51.534;9.934;2023-05-12T04:28:51;100001.59;;;13.65;81.67
70841;BME280;58465;51.534;9.934;2023-05-12T04:31:17;99996.97;;;13.70;81.84
70841;BME280;58465;51.534;9.934;2023-05-12T04:33:42;100000.34;;;13.75;82.04
70841;BME280;58465;51.534;9.934;2023-05-12T04:36:07;100000.69;;;13.91;81.45
70841;BME280;58465;51.534;9.934;2023-05-12T04:38:33;99999.34;;;14.02;81.58
70841;BME280;58465;51.534;9.934;2023-05-12T04:40:59;100008.50;;;13.97;81.16
70841;BME280;58465;51.534;9.934;2023-05-12T04:43:24;100003.75;;;14.03;80.88
70841;BME280;58465;51.534;9.934;2023-05-12T04:45:50;100007.56;;;13.98;80.92
70841;BME280;58465;51.534;9.934;2023-05-12T04:48:15;100004.53;;;14.07;80.82
70841;BME280;58465;51.534;9.934;2023-05-12T04:50:41;100014.19;;;14.13;80.56
70841;BME280;58465;51.534;9.934;2023-05-12T04:53:07;100006.81;;;14.18;80.29
70841;BME280;58465;51.534;9.934;2023-05-12T04:55:32;100013.72;;;14.01;80.61
70841;BME280;58465;51.534;9.934;2023-05-12T04:57:57;100011.31;;;14.17;80.28
70841;BME280;58465;51.534;9.934;2023-05-12T05:00:23;100014.41;;;14.06;80.81
70841;BME280;58465;51.534;9.934;2023-05-12T05:02:48;100012.50;;;14.10;80.58
70841;BME280;58465;51.534;9.934;2023-05-12T05:05:13;100022.00;;;14.19;80.38
70841;BME280;58465;51.534;9.934;2023-05-12T05:07:39;100024.50;;;14.23;80.27
70841;BME280;58465;51.534;9.934;2023-05-12T05:10:04;100026.22;;;14.26;80.02
70841;BME280;58465;51.534;9.934;2023-05-12T05:12:39;100032.88;;;14.16;79.96
70841;BME280;58465;51.534;9.934;2023-05-12T05:15:05;100041.78;;;14.16;80.03
70841;BME280;58465;51.534;9.934;2023-05-12T05:17:31;100040.84;;;14.42;79.78
70841;BME280;58465;51.534;9.934;2023-05-12T05:19:57;100042.25;;;14.52;79.13
70841;BME280;58465;51.534;9.934;2023-05-12T05:22:22;100036.59;;;14.60;78.77
70841;BME280;58465;51.534;9.934;2023-05-12T05:24:48;100051.78;;;14.61;78.52
70841;BME280;58465;51.534;9.934;2023-05-12T05:27:13;100042.28;;;14.74;78.68
70841;BME280;58465;51.534;9.934;2023-05-12T05:29:39;100045.59;;;14.80;78.28
70841;BME280;58465;51.534;9.934;2023-05-12T05:32:04;100044.25;;;14.92;78.13
70841;BME280;58465;51.534;9.934;2023-05-12T05:34:29;100043.25;;;14.95;78.10
70841;BME280;58465;51.534;9.934;2023-05-12T05:36:55;100046.19;;;15.10;77.67
70841;BME280;58465;51.534;9.934;2023-05-12T05:39:20;100049.25;;;15.23;77.17
70841;BME280;58465;51.534;9.934;2023-05-12T05:41:46;100052.44;;;14.89;77.15
70841;BME280;58465;51.534;9.934;2023-05-12T05:44:11;100048.88;;;14.89;77.50
70841;BME280;58465;51.534;9.934;2023-05-12T05:46:37;100050.69;;;15.10;77.33
70841;BME280;58465;51.534;9.934;2023-05-12T05:49:02;100055.13;;;15.11;76.39
70841;BME280;58465;51.534;9.934;2023-05-12T05:51:27;100046.06;;;15.35;76.40
70841;BME280;58465;51.534;9.934;2023-05-12T05:53:54;100055.63;;;15.42;75.95
70841;BME280;58465;51.534;9.934;2023-05-12T05:56:19;100056.31;;;15.26;75.60
70841;BME280;58465;51.534;9.934;2023-05-12T05:58:44;100051.66;;;15.29;76.58
70841;BME280;58465;51.534;9.934;2023-05-12T06:01:10;100057.81;;;15.54;75.70
70841;BME280;58465;51.534;9.934;2023-05-12T06:03:35;100063.03;;;15.37;75.45
70841;BME280;58465;51.534;9.934;2023-05-12T06:06:01;100063.94;;;15.58;75.26
70841;BME280;58465;51.534;9.934;2023-05-12T06:08:26;100062.03;;;15.82;74.94
70841;BME280;58465;51.534;9.934;2023-05-12T06:10:52;100064.13;;;15.53;74.59
70841;BME280;58465;51.534;9.934;2023-05-12T06:13:17;100062.91;;;15.82;74.21
70841;BME280;58465;51.534;9.934;2023-05-12T06:15:42;100064.72;;;15.82;74.20
70841;BME280;58465;51.534;9.934;2023-05-12T06:18:07;100069.94;;;16.05;73.75
70841;BME280;58465;51.534;9.934;2023-05-12T06:20:33;100071.63;;;15.67;73.93
70841;BME280;58465;51.534;9.934;2023-05-12T06:22:58;100073.19;;;15.73;74.24
70841;BME280;58465;51.534;9.934;2023-05-12T06:25:24;100065.34;;;15.67;74.54
70841;BME280;58465;51.534;9.934;2023-05-12T06:27:50;100074.38;;;15.86;73.48
70841;BME280;58465;51.534;9.934;2023-05-12T06:30:16;100068.22;;;15.84;74.63
70841;BME280;58465;51.534;9.934;2023-05-12T06:32:42;100076.78;;;15.93;73.92
70841;BME280;58465;51.534;9.934;2023-05-12T06:35:08;100074.38;;;15.86;73.73
70841;BME280;58465;51.534;9.934;2023-05-12T06:37:33;100075.75;;;15.76;74.56
70841;BME280;58465;51.534;9.934;2023-05-12T06:39:58;100072.91;;;16.19;74.06
70841;BME280;58465;51.534;9.934;2023-05-12T06:42:24;100081.97;;;16.37;72.73
70841;BME280;58465;51.534;9.934;2023-05-12T06:44:52;100071.56;;;16.29;72.29
70841;BME280;58465;51.534;9.934;2023-05-12T06:47:18;100067.41;;;16.22;72.94
70841;BME280;58465;51.534;9.934;2023-05-12T06:49:43;100077.53;;;16.75;71.81
70841;BME280;58465;51.534;9.934;2023-05-12T06:52:08;100081.41;;;17.07;71.14
70841;BME280;58465;51.534;9.934;2023-05-12T06:54:34;100082.31;;;17.25;69.90
70841;BME280;58465;51.534;9.934;2023-05-12T06:56:59;100082.34;;;17.42;69.46
70841;BME280;58465;51.534;9.934;2023-05-12T06:59:24;100083.19;;;17.25;69.89
70841;BME280;58465;51.534;9.934;2023-05-12T07:01:50;100076.78;;;17.28;70.01
70841;BME280;58465;51.534;9.934;2023-05-12T07:04:15;100081.13;;;17.30;69.18
70841;BME280;58465;51.534;9.934;2023-05-12T07:06:41;100076.50;;;17.51;69.10
70841;BME280;58465;51.534;9.934;2023-05-12T07:09:07;100078.31;;;17.51;68.60
70841;BME280;58465;51.534;9.934;2023-05-12T07:11:32;100067.50;;;17.87;67.74
70841;BME280;58465;51.534;9.934;2023-05-12T07:13:58;100067.66;;;17.66;68.17
70841;BME280;58465;51.534;9.934;2023-05-12T07:16:23;100062.88;;;17.71;68.42
70841;BME280;58465;51.534;9.934;2023-05-12T07:18:48;100064.38;;;18.11;67.24
70841;BME280;58465;51.534;9.934;2023-05-12T07:21:14;100063.97;;;18.19;66.96
70841;BME280;58465;51.534;9.934;2023-05-12T07:23:39;100065.41;;;18.09;67.33
70841;BME280;58465;51.534;9.934;2023-05-12T07:26:06;100063.84;;;18.38;66.41
70841;BME280;58465;51.534;9.934;2023-05-12T07:28:32;100067.19;;;17.75;66.39
70841;BME280;58465;51.534;9.934;2023-05-12T07:31:05;100069.72;;;18.46;65.70
70841;BME280;58465;51.534;9.934;2023-05-12T07:33:34;100058.75;;;17.99;66.40
70841;BME280;58465;51.534;9.934;2023-05-12T07:36:00;100065.19;;;18.46;65.78
70841;BME280;58465;51.534;9.934;2023-05-12T07:38:26;100064.50;;;18.43;65.10
70841;BME280;58465;51.534;9.934;2023-05-12T07:40:51;100063.28;;;18.81;64.74
70841;BME280;58465;51.534;9.934;2023-05-12T07:43:16;100062.31;;;19.14;64.71
70841;BME280;58465;51.534;9.934;2023-05-12T07:45:43;100053.13;;;18.36;64.71
70841;BME280;58465;51.534;9.934;2023-05-12T07:48:08;100061.72;;;18.93;64.84
70841;BME280;58465;51.534;9.934;2023-05-12T07:50:35;100062.44;;;19.74;62.60
70841;BME280;58465;51.534;9.934;2023-05-12T07:53:01;100059.06;;;19.39;62.63
70841;BME280;58465;51.534;9.934;2023-05-12T07:55:26;100044.50;;;20.01;61.61
70841;BME280;58465;51.534;9.934;2023-05-12T07:57:51;100046.72;;;19.94;61.02
70841;BME280;58465;51.534;9.934;2023-05-12T08:00:17;100051.53;;;20.48;59.00
70841;BME280;58465;51.534;9.934;2023-05-12T08:02:43;100053.63;;;20.28;59.07
70841;BME280;58465;51.534;9.934;2023-05-12T08:05:09;100049.81;;;20.02;59.69
70841;BME280;58465;51.534;9.934;2023-05-12T08:07:35;100051.00;;;19.98;60.32
70841;BME280;58465;51.534;9.934;2023-05-12T08:10:02;100052.63;;;19.71;61.32
70841;BME280;58465;51.534;9.934;2023-05-12T08:12:27;100048.16;;;19.40;61.55
70841;BME280;58465;51.534;9.934;2023-05-12T08:14:54;100047.09;;;19.58;61.14
70841;BME280;58465;51.534;9.934;2023-05-12T08:17:19;100038.59;;;19.94;61.18
70841;BME280;58465;51.534;9.934;2023-05-12T08:19:45;100036.84;;;19.93;60.85
70841;BME280;58465;51.534;9.934;2023-05-12T08:22:10;100039.19;;;20.14;59.85
70841;BME280;58465;51.534;9.934;2023-05-12T08:24:36;100038.66;;;19.93;59.67
70841;BME280;58465;51.534;9.934;2023-05-12T08:27:01;100048.72;;;19.61;60.01
70841;BME280;58465;51.534;9.934;2023-05-12T08:29:27;100048.03;;;19.42;61.43
70841;BME280;58465;51.534;9.934;2023-05-12T08:31:53;100040.84;;;19.72;60.97
70841;BME280;58465;51.534;9.934;2023-05-12T08:34:18;100036.53;;;19.84;60.73
70841;BME280;58465;51.534;9.934;2023-05-12T08:36:43;100039.38;;;20.11;59.74
70841;BME280;58465;51.534;9.934;2023-05-12T08:39:09;100036.31;;;20.17;58.72
70841;BME280;58465;51.534;9.934;2023-05-12T08:41:52;100037.25;;;20.30;58.39
70841;BME280;58465;51.534;9.934;2023-05-12T08:44:22;100035.13;;;20.21;58.45
70841;BME280;58465;51.534;9.934;2023-05-12T08:46:50;100040.09;;;20.85;56.92
70841;BME280;58465;51.534;9.934;2023-05-12T08:49:16;100040.94;;;20.86;56.56
70841;BME280;58465;51.534;9.934;2023-05-12T08:51:46;100041.38;;;20.65;56.94
70841;BME280;58465;51.534;9.934;2023-05-12T08:54:12;100048.94;;;20.46;57.18
70841;BME280;58465;51.534;9.934;2023-05-12T08:56:39;100040.81;;;20.46;57.09
70841;BME280;58465;51.534;9.934;2023-05-12T08:59:07;100044.53;;;20.15;57.53
70841;BME280;58465;51.534;9.934;2023-05-12T09:01:34;100039.38;;;20.11;57.64
70841;BME280;58465;51.534;9.934;2023-05-12T09:04:00;100043.31;;;20.35;57.00
70841;BME280;58465;51.534;9.934;2023-05-12T09:06:26;100039.34;;;20.41;56.62
70841;BME280;58465;51.534;9.934;2023-05-12T09:08:51;100043.88;;;20.40;57.14
70841;BME280;58465;51.534;9.934;2023-05-12T09:11:17;100039.03;;;20.73;55.71
70841;BME280;58465;51.534;9.934;2023-05-12T09:13:53;100041.81;;;20.86;55.04
70841;BME280;58465;51.534;9.934;2023-05-12T09:16:27;100041.41;;;21.21;53.85
70841;BME280;58465;51.534;9.934;2023-05-12T09:18:57;100036.78;;;21.35;53.82
70841;BME280;58465;51.534;9.934;2023-05-12T09:21:23;100041.44;;;21.60;52.14
70841;BME280;58465;51.534;9.934;2023-05-12T09:24:05;100036.19;;;21.97;49.80
70841;BME280;58465;51.534;9.934;2023-05-12T09:26:52;100038.41;;;22.04;48.18
70841;BME280;58465;51.534;9.934;2023-05-12T09:29:18;100040.06;;;22.19;47.85
70841;BME280;58465;51.534;9.934;2023-05-12T09:31:54;100036.78;;;22.27;44.75
70841;BME280;58465;51.534;9.934;2023-05-12T09:34:33;100044.97;;;22.27;43.19
70841;BME280;58465;51.534;9.934;2023-05-12T09:37:05;100033.28;;;22.00;42.72
70841;BME280;58465;51.534;9.934;2023-05-12T09:39:31;100035.56;;;22.06;42.01
70841;BME280;58465;51.534;9.934;2023-05-12T09:41:57;100043.31;;;22.25;43.08
70841;BME280;58465;51.534;9.934;2023-05-12T09:44:23;100040.72;;;22.36;43.30
70841;BME280;58465;51.534;9.934;2023-05-12T09:46:49;100039.28;;;22.43;42.91
70841;BME280;58465;51.534;9.934;2023-05-12T09:49:23;100038.75;;;22.38;42.34
70841;BME280;58465;51.534;9.934;2023-05-12T09:51:57;100045.94;;;22.01;42.86
70841;BME280;58465;51.534;9.934;2023-05-12T09:54:30;100034.94;;;22.15;42.34
70841;BME280;58465;51.534;9.934;2023-05-12T09:57:00;100046.59;;;22.30;43.19
70841;BME280;58465;51.534;9.934;2023-05-12T09:59:34;100041.81;;;21.94;40.87
70841;BME280;58465;51.534;9.934;2023-05-12T10:02:02;100041.25;;;22.15;41.79
70841;BME280;58465;51.534;9.934;2023-05-12T10:04:31;100050.50;;;22.38;41.48
70841;BME280;58465;51.534;9.934;2023-05-12T10:07:04;100045.28;;;22.35;40.55
70841;BME280;58465;51.534;9.934;2023-05-12T10:09:32;100049.81;;;22.60;40.56
70841;BME280;58465;51.534;9.934;2023-05-12T10:12:01;100055.72;;;22.79;38.88
70841;BME280;58465;51.534;9.934;2023-05-12T10:14:28;100047.03;;;22.49;38.46
70841;BME280;58465;51.534;9.934;2023-05-12T10:16:56;100049.75;;;22.36;37.04
70841;BME280;58465;51.534;9.934;2023-05-12T10:19:24;100040.94;;;22.20;36.97
70841;BME280;58465;51.534;9.934;2023-05-12T10:21:49;100041.13;;;22.55;37.00
70841;BME280;58465;51.534;9.934;2023-05-12T10:24:15;100042.09;;;22.54;36.37
70841;BME280;58465;51.534;9.934;2023-05-12T10:26:43;100051.81;;;22.45;35.99
70841;BME280;58465;51.534;9.934;2023-05-12T10:29:09;100047.03;;;22.49;35.25
70841;BME280;58465;51.534;9.934;2023-05-12T10:31:36;100040.72;;;22.36;34.25
70841;BME280;58465;51.534;9.934;2023-05-12T10:34:02;100037.22;;;22.08;34.42
70841;BME280;58465;51.534;9.934;2023-05-12T10:36:28;100033.53;;;22.09;33.56
70841;BME280;58465;51.534;9.934;2023-05-12T10:38:54;100035.47;;;22.33;33.84
70841;BME280;58465;51.534;9.934;2023-05-12T10:41:30;100040.56;;;22.50;33.04
70841;BME280;58465;51.534;9.934;2023-05-12T10:43:56;100047.25;;;22.58;33.34
70841;BME280;58465;51.534;9.934;2023-05-12T10:46:22;100043.53;;;22.47;33.18
70841;BME280;58465;51.534;9.934;2023-05-12T10:49:08;100035.47;;;22.83;33.74
70841;BME280;58465;51.534;9.934;2023-05-12T10:54:06;100042.72;;;23.32;33.59
70841;BME280;58465;51.534;9.934;2023-05-12T10:59:10;100037.81;;;23.61;32.70
70841;BME280;58465;51.534;9.934;2023-05-12T11:01:37;100035.69;;;23.53;32.25
70841;BME280;58465;51.534;9.934;2023-05-12T11:04:11;100048.56;;;23.39;32.38
70841;BME280;58465;51.534;9.934;2023-05-12T11:06:37;100035.69;;;23.53;32.04
70841;BME280;58465;51.534;9.934;2023-05-12T11:09:03;100035.13;;;23.72;31.42
70841;BME280;58465;51.534;9.934;2023-05-12T11:11:29;100021.03;;;23.78;31.30
70841;BME280;58465;51.534;9.934;2023-05-12T11:13:54;100036.13;;;23.71;31.16
70841;BME280;58465;51.534;9.934;2023-05-12T11:16:20;100022.38;;;23.73;31.09
70841;BME280;58465;51.534;9.934;2023-05-12T11:18:45;100041.69;;;23.70;31.11
70841;BME280;58465;51.534;9.934;2023-05-12T11:21:11;100031.72;;;23.57;29.69
70841;BME280;58465;51.534;9.934;2023-05-12T11:23:36;100021.69;;;23.45;29.46
70841;BME280;58465;51.534;9.934;2023-05-12T11:26:01;100028.31;;;23.78;29.67
70841;BME280;58465;51.534;9.934;2023-05-12T11:28:38;100030.19;;;23.77;29.69
70841;BME280;58465;51.534;9.934;2023-05-12T11:31:03;100024.78;;;23.88;28.70
70841;BME280;58465;51.534;9.934;2023-05-12T11:33:29;100021.41;;;23.85;28.83
70841;BME280;58465;51.534;9.934;2023-05-12T11:35:54;100029.75;;;23.94;28.46
70841;BME280;58465;51.534;9.934;2023-05-12T11:38:19;100026.59;;;23.77;28.00
70841;BME280;58465;51.534;9.934;2023-05-12T11:40:48;100028.03;;;24.04;27.98
70841;BME280;58465;51.534;9.934;2023-05-12T11:43:19;100023.59;;;25.37;27.27
70841;BME280;58465;51.534;9.934;2023-05-12T11:45:44;100025.75;;;26.70;25.30
70841;BME280;58465;51.534;9.934;2023-05-12T11:48:11;100021.06;;;27.41;24.75
70841;BME280;58465;51.534;9.934;2023-05-12T11:50:38;100022.41;;;26.36;25.14
70841;BME280;58465;51.534;9.934;2023-05-12T11:53:09;100023.31;;;25.83;25.93
70841;BME280;58465;51.534;9.934;2023-05-12T11:55:34;100013.25;;;25.41;25.79
70841;BME280;58465;51.534;9.934;2023-05-12T11:58:01;100023.69;;;25.47;26.26
70841;BME280;58465;51.534;9.934;2023-05-12T12:00:28;100034.72;;;25.13;26.63
70841;BME280;58465;51.534;9.934;2023-05-12T12:03:04;100038.56;;;24.89;26.88
70841;BME280;58465;51.534;9.934;2023-05-12T12:05:30;100043.84;;;25.46;26.69
70841;BME280;58465;51.534;9.934;2023-05-12T12:08:20;100044.41;;;24.62;27.19
70841;BME280;58465;51.534;9.934;2023-05-12T12:10:46;100039.94;;;24.61;27.42
70841;BME280;58465;51.534;9.934;2023-05-12T12:13:22;100037.16;;;23.81;28.53
70841;BME280;58465;51.534;9.934;2023-05-12T12:15:48;100039.91;;;23.57;28.97
70841;BME280;58465;51.534;9.934;2023-05-12T12:18:14;100042.34;;;23.84;29.13
70841;BME280;58465;51.534;9.934;2023-05-12T12:20:43;100047.00;;;24.06;28.60
70841;BME280;58465;51.534;9.934;2023-05-12T12:23:09;100054.34;;;24.40;28.18
70841;BME280;58465;51.534;9.934;2023-05-12T12:25:34;100054.06;;;24.44;27.87
70841;BME280;58465;51.534;9.934;2023-05-12T12:27:59;100064.75;;;24.91;27.56
70841;BME280;58465;51.534;9.934;2023-05-12T12:30:25;100064.25;;;24.64;27.97
70841;BME280;58465;51.534;9.934;2023-05-12T12:32:50;100058.81;;;24.07;28.21
70841;BME280;58465;51.534;9.934;2023-05-12T12:35:16;100058.28;;;24.36;28.17
70841;BME280;58465;51.534;9.934;2023-05-12T12:37:41;100053.94;;;24.34;28.17
70841;BME280;58465;51.534;9.934;2023-05-12T12:40:07;100060.16;;;24.47;28.13
70841;BME280;58465;51.534;9.934;2023-05-12T12:42:34;100061.44;;;24.19;28.07
70841;BME280;58465;51.534;9.934;2023-05-12T12:45:00;100052.69;;;23.92;28.79
70841;BME280;58465;51.534;9.934;2023-05-12T12:47:26;100054.09;;;24.09;28.65
70841;BME280;58465;51.534;9.934;2023-05-12T12:49:51;100052.06;;;24.34;28.71
70841;BME280;58465;51.534;9.934;2023-05-12T12:52:17;100051.88;;;24.60;28.25
70841;BME280;58465;51.534;9.934;2023-05-12T12:54:42;100052.09;;;24.57;28.35